Latest Weather Observations for Fawkner Beacon

IDV60801

Issued at 3:05 am EDT Tuesday 25 November 2014 (issued every 30 minutes, with the page automatically refreshed every 10 minutes)

About weather observations | Map of weather stations | Latest weather observations for VIC | Other Formats
Station Details ID: 086376 Name: FAWKNER BEACON Lat: -37.91 Lon: 144.93 Height: 17.0 m
Data from the previous 72 hours. | See also: Recent months for locations in Victoria
Date/Time
EDT
Temp
°C
App
Temp
°C
Dew
Point
Rel
Hum
%
Delta-T
°C
Wind Press
QNH
hPa
Press
MSL
hPa
Rain
since 9 am
mm
Dir
 
Spd
km/h
Gust
km/h
Spd
kts
Gust
kts
25/03:00am - - - - - W 37 50 20 27 - - -
25/02:30am - - - - - W 32 41 17 22 - - -
25/02:00am - - - - - W 28 35 15 19 - - -
25/01:30am - - - - - W 33 43 18 23 - - -
25/01:00am - - - - - WSW 35 43 19 23 - - -
25/12:30am - - - - - WSW 35 43 19 23 - - -
25/12:00am - - - - - WSW 32 39 17 21 - - -
 
Date/Time
EDT
Temp
°C
App
Temp
°C
Dew
Point
Rel
Hum
%
Delta-T
°C
Wind Press
QNH
hPa
Press
MSL
hPa
Rain
since 9 am
mm
Dir
 
Spd
km/h
Gust
km/h
Spd
kts
Gust
kts
24/11:30pm - - - - - WSW 39 48 21 26 - - -
24/11:00pm - - - - - WSW 35 43 19 23 - - -
24/10:30pm - - - - - WSW 28 35 15 19 - - -
24/10:00pm - - - - - WSW 32 41 17 22 - - -
24/09:30pm - - - - - SW 39 44 21 24 - - -
24/09:23pm - - - - - SW 37 43 20 23 - - -
24/09:00pm - - - - - SSW 24 28 13 15 - - -
24/08:30pm - - - - - SSW 32 44 17 24 - - -
24/08:00pm - - - - - S 39 46 21 25 - - -
24/07:30pm - - - - - S 37 44 20 24 - - -
24/07:00pm - - - - - SSW 46 54 25 29 - - -
24/06:30pm - - - - - S 48 57 26 31 - - -
24/06:22pm - - - - - S 48 57 26 31 - - -
24/06:00pm - - - - - S 28 39 15 21 - - -
24/05:30pm - - - - - SW 28 32 15 17 - - -
24/05:00pm - - - - - SW 33 41 18 22 - - -
24/04:30pm - - - - - SW 43 48 23 26 - - -
24/04:00pm - - - - - SW 33 43 18 23 - - -
24/03:55pm - - - - - SW 28 43 15 23 - - -
24/03:30pm - - - - - SW 20 24 11 13 - - -
24/03:00pm - - - - - S 24 30 13 16 - - -
24/02:30pm - - - - - S 22 24 12 13 - - -
24/02:19pm - - - - - SSW 28 35 15 19 - - -
24/02:00pm - - - - - ENE 4 7 2 4 - - -
24/01:30pm - - - - - NE 9 15 5 8 - - -
24/01:00pm - - - - - NE 22 33 12 18 - - -
24/12:30pm - - - - - ENE 20 22 11 12 - - -
24/12:00pm - - - - - E 9 13 5 7 - - -
24/11:30am - - - - - E 7 9 4 5 - - -
24/11:00am - - - - - ESE 7 15 4 8 - - -
24/10:30am - - - - - ENE 9 13 5 7 - - -
24/10:00am - - - - - SE 7 9 4 5 - - -
24/09:30am - - - - - S 20 24 11 13 - - -
24/09:00am - - - - - S 20 30 11 16 - - -
24/08:38am - - - - - SSW 32 50 17 27 - - -
24/08:30am - - - - - SSW 37 50 20 27 - - -
24/08:21am - - - - - SW 28 35 15 19 - - -
24/08:00am - - - - - NE 11 15 6 8 - - -
24/07:30am - - - - - NNE 11 15 6 8 - - -
24/07:00am - - - - - N 13 15 7 8 - - -
24/06:30am - - - - - NNW 4 9 2 5 - - -
24/06:00am - - - - - WNW 9 11 5 6 - - -
24/05:30am - - - - - NE 7 9 4 5 - - -
24/05:00am - - - - - CALM 0 0 0 0 - - -
24/04:30am - - - - - NE 6 9 3 5 - - -
24/04:00am - - - - - ENE 7 9 4 5 - - -
24/03:30am - - - - - NE 2 6 1 3 - - -
24/03:00am - - - - - NE 7 11 4 6 - - -
24/02:30am - - - - - NE 7 11 4 6 - - -
24/02:00am - - - - - ENE 9 11 5 6 - - -
24/01:30am - - - - - NE 13 17 7 9 - - -
24/01:00am - - - - - E 15 20 8 11 - - -
24/12:30am - - - - - ENE 11 15 6 8 - - -
24/12:00am - - - - - E 13 15 7 8 - - -
 
Date/Time
EDT
Temp
°C
App
Temp
°C
Dew
Point
Rel
Hum
%
Delta-T
°C
Wind Press
QNH
hPa
Press
MSL
hPa
Rain
since 9 am
mm
Dir
 
Spd
km/h
Gust
km/h
Spd
kts
Gust
kts
23/11:30pm - - - - - E 15 20 8 11 - - -
23/11:00pm - - - - - ESE 19 22 10 12 - - -
23/10:30pm - - - - - ESE 17 22 9 12 - - -
23/10:00pm - - - - - ESE 17 20 9 11 - - -
23/09:30pm - - - - - ESE 19 22 10 12 - - -
23/09:00pm - - - - - E 24 28 13 15 - - -
23/08:30pm - - - - - ESE 22 26 12 14 - - -
23/08:00pm - - - - - ESE 24 28 13 15 - - -
23/07:30pm - - - - - ESE 24 28 13 15 - - -
23/07:00pm - - - - - ESE 26 30 14 16 - - -
23/06:30pm - - - - - SE 26 30 14 16 - - -
23/06:00pm - - - - - SSE 26 30 14 16 - - -
23/05:30pm - - - - - SSE 24 28 13 15 - - -
23/05:00pm - - - - - SSE 20 26 11 14 - - -
23/04:30pm - - - - - SE 26 30 14 16 - - -
23/04:00pm - - - - - SSE 32 35 17 19 - - -
23/03:30pm - - - - - SSE 32 35 17 19 - - -
23/03:00pm - - - - - SSE 30 35 16 19 - - -
23/02:30pm - - - - - SSE 28 32 15 17 - - -
23/02:00pm - - - - - SSE 26 30 14 16 - - -
23/01:30pm - - - - - S 17 20 9 11 - - -
23/01:00pm - - - - - S 19 24 10 13 - - -
23/12:30pm - - - - - SSE 17 20 9 11 - - -
23/12:00pm - - - - - SSE 19 22 10 12 - - -
23/11:30am - - - - - SSE 15 17 8 9 - - -
23/11:00am - - - - - SSE 15 17 8 9 - - -
23/10:30am - - - - - S 11 15 6 8 - - -
23/10:00am - - - - - S 11 13 6 7 - - -
23/09:30am - - - - - S 13 17 7 9 - - -
23/09:00am - - - - - SSW 15 17 8 9 - - -
23/08:30am - - - - - SSW 13 17 7 9 - - -
23/08:00am - - - - - SSW 13 15 7 8 - - -
23/07:30am - - - - - SW 11 13 6 7 - - -
23/07:00am - - - - - SW 11 13 6 7 - - -
23/06:30am - - - - - WSW 11 13 6 7 - - -
23/06:00am - - - - - W 11 15 6 8 - - -
23/05:30am - - - - - WSW 13 15 7 8 - - -
23/05:00am - - - - - WSW 15 17 8 9 - - -
23/04:30am - - - - - WSW 19 22 10 12 - - -
23/04:00am - - - - - SW 24 26 13 14 - - -
23/03:30am - - - - - SW 26 28 14 15 - - -
23/03:00am - - - - - SW 24 28 13 15 - - -
23/02:30am - - - - - SW 17 24 9 13 - - -
23/02:00am - - - - - SW 17 22 9 12 - - -
23/01:30am - - - - - SSW 7 9 4 5 - - -
23/01:00am - - - - - SSW 6 7 3 4 - - -
23/12:30am - - - - - S 2 7 1 4 - - -
23/12:00am - - - - - S 6 9 3 5 - - -
 
Date/Time
EDT
Temp
°C
App
Temp
°C
Dew
Point
Rel
Hum
%
Delta-T
°C
Wind Press
QNH
hPa
Press
MSL
hPa
Rain
since 9 am
mm
Dir
 
Spd
km/h
Gust
km/h
Spd
kts
Gust
kts
22/11:30pm - - - - - S 9 15 5 8 - - -
22/11:00pm - - - - - S 22 28 12 15 - - -
22/10:30pm - - - - - S 24 32 13 17 - - -
22/10:00pm - - - - - S 26 32 14 17 - - -
22/09:30pm - - - - - S 30 44 16 24 - - -
22/09:25pm - - - - - S 30 44 16 24 - - -
22/09:00pm - - - - - WNW 22 26 12 14 - - -
22/08:30pm - - - - - WNW 22 28 12 15 - - -
22/08:00pm - - - - - NW 35 44 19 24 - - -
22/07:30pm - - - - - NW 48 65 26 35 - - -
22/07:22pm - - - - - NW 43 65 23 35 - - -
22/07:00pm - - - - - NW 37 50 20 27 - - -
22/06:30pm - - - - - NW 35 50 19 27 - - -
22/06:00pm - - - - - NW 32 41 17 22 - - -
22/05:30pm - - - - - NNW 43 48 23 26 - - -
22/05:00pm - - - - - NNW 43 54 23 29 - - -
22/04:30pm - - - - - NNW 43 48 23 26 - - -
22/04:00pm - - - - - N 28 33 15 18 - - -
22/03:30pm - - - - - N 39 44 21 24 - - -
22/03:00pm - - - - - N 35 44 19 24 - - -
22/02:30pm - - - - - N 41 48 22 26 - - -
22/02:00pm - - - - - N 32 39 17 21 - - -
22/01:30pm - - - - - N 39 44 21 24 - - -
22/01:00pm - - - - - N 41 46 22 25 - - -
22/12:30pm - - - - - N 41 50 22 27 - - -
22/12:19pm - - - - - NNW 33 43 18 23 - - -
22/12:00pm - - - - - NNW 20 24 11 13 - - -
22/11:30am - - - - - N 13 15 7 8 - - -
22/11:00am - - - - - N 15 20 8 11 - - -
22/10:30am - - - - - N 17 22 9 12 - - -
22/10:00am - - - - - N 15 17 8 9 - - -
22/09:30am - - - - - N 9 13 5 7 - - -
22/09:00am - - - - - N 11 13 6 7 - - -
22/08:30am - - - - - N 11 13 6 7 - - -
22/08:00am - - - - - N 9 11 5 6 - - -
22/07:30am - - - - - N 6 7 3 4 - - -
22/07:00am - - - - - CALM 0 0 0 0 - - -
22/06:30am - - - - - N 9 13 5 7 - - -
22/06:00am - - - - - N 17 20 9 11 - - -
22/05:30am - - - - - N 17 20 9 11 - - -
22/05:00am - - - - - NNW 11 13 6 7 - - -
22/04:30am - - - - - NNW 9 11 5 6 - - -
22/04:00am - - - - - N 7 11 4 6 - - -
22/03:30am - - - - - N 7 11 4 6 - - -

Other Formats:

Comma delimited format used in spreadsheet applications
http://www.bom.gov.au/fwo/IDV60801/IDV60801.95872.axf

JavaScript Object Notation format (JSON) in row-major order
http://www.bom.gov.au/fwo/IDV60801/IDV60801.95872.json